createdAt,value
2019-02-15T00:03:51.685Z,60.55
2019-02-15T00:08:56.985Z,66.20
2019-02-15T00:14:02.306Z,57.50
2019-02-15T00:19:12.165Z,55.25
2019-02-15T00:24:17.460Z,52.73
2019-02-15T00:29:22.776Z,50.38
2019-02-15T00:34:28.155Z,49.98
2019-02-15T00:39:33.450Z,52.33
2019-02-15T00:44:38.833Z,53.33
2019-02-15T00:49:45.984Z,60.58
2019-02-15T00:55:11.262Z,45.90
2019-02-15T01:00:20.821Z,58.25
2019-02-15T01:05:43.984Z,54.67
2019-02-15T01:10:50.900Z,61.25
2019-02-15T01:15:56.193Z,57.20
2019-02-15T01:21:01.492Z,56.50
2019-02-15T01:26:23.761Z,59.60
2019-02-15T01:31:30.704Z,57.88
2019-02-15T01:36:37.669Z,50.85
2019-02-15T01:41:44.609Z,58.45
2019-02-15T01:46:51.577Z,58.25
2019-02-15T01:51:56.890Z,63.52
2019-02-15T01:57:02.177Z,57.50
2019-02-15T02:02:07.566Z,66.40
2019-02-15T02:07:12.857Z,64.17
2019-02-15T02:12:18.148Z,58.75
2019-02-15T02:17:23.521Z,51.13
2019-02-15T02:22:28.865Z,64.62
2019-02-15T02:27:34.170Z,64.62
2019-02-15T02:32:39.452Z,61.02
2019-02-15T02:37:44.752Z,73.42
2019-02-15T02:42:50.041Z,71.37
2019-02-15T02:47:55.435Z,74.35
2019-02-15T02:53:00.730Z,70.20
2019-02-15T02:58:06.031Z,74.58
2019-02-15T03:03:11.356Z,58.60
2019-02-15T03:08:16.715Z,74.30
2019-02-15T03:13:22.092Z,65.40
2019-02-15T03:18:27.369Z,65.42
2019-02-15T03:23:32.677Z,64.22
2019-02-15T03:28:38.085Z,68.30
2019-02-15T03:33:43.435Z,69.25
2019-02-15T03:38:50.362Z,70.92
2019-02-15T03:43:55.921Z,67.60
2019-02-15T03:49:01.237Z,67.65
2019-02-15T03:54:06.535Z,74.15
2019-02-15T03:59:11.838Z,72.30
2019-02-15T04:04:17.136Z,74.65
2019-02-15T04:09:22.502Z,66.22
2019-02-15T04:14:32.848Z,61.28
2019-02-15T04:19:34.907Z,69.10
2019-02-15T04:24:40.220Z,66.42
2019-02-15T04:29:45.529Z,63.28
2019-02-15T04:34:50.839Z,58.73
2019-02-15T04:39:56.162Z,67.12
2019-02-15T04:45:01.441Z,64.95
2019-02-15T04:50:08.600Z,68.97
2019-02-15T04:55:14.185Z,62.60
2019-02-15T05:00:19.599Z,63.13
2019-02-15T05:05:25.067Z,59.27
2019-02-15T05:10:30.370Z,52.10
2019-02-15T05:15:35.665Z,54.23
2019-02-15T05:20:40.969Z,58.87
2019-02-15T05:25:46.519Z,58.42
2019-02-15T05:30:52.864Z,65.97
2019-02-15T05:35:58.243Z,66.33
2019-02-15T05:41:03.535Z,74.50
2019-02-15T05:46:08.849Z,62.73
2019-02-15T05:51:14.349Z,61.30
2019-02-15T05:56:19.761Z,60.88
2019-02-15T06:01:26.399Z,60.00
2019-02-15T06:06:31.707Z,67.08
2019-02-15T06:11:37.020Z,55.70
2019-02-15T06:16:42.740Z,52.50
2019-02-15T06:21:48.135Z,59.90
2019-02-15T06:26:53.709Z,61.05
2019-02-15T06:32:00.506Z,61.10
2019-02-15T06:37:05.810Z,63.23
2019-02-15T06:42:11.112Z,58.25
2019-02-15T06:47:16.421Z,54.93
2019-02-15T06:52:21.705Z,62.60
2019-02-15T06:57:27.015Z,59.13
2019-02-15T07:02:34.073Z,55.67
2019-02-15T07:07:39.367Z,52.48
2019-02-15T07:12:44.670Z,51.70
2019-02-15T07:17:49.956Z,49.38
2019-02-15T07:22:55.309Z,43.23
2019-02-15T07:28:00.683Z,49.58
2019-02-15T07:33:05.998Z,41.92
2019-02-15T07:38:12.130Z,45.33
2019-02-15T07:43:17.503Z,42.23
2019-02-15T07:48:22.815Z,43.87
2019-02-15T07:53:28.138Z,49.35
2019-02-15T07:58:33.431Z,43.85
2019-02-15T08:03:38.745Z,36.98
2019-02-15T08:08:44.038Z,38.50
2019-02-15T08:13:49.350Z,33.35
2019-02-15T08:18:54.666Z,37.10
2019-02-15T08:24:01.045Z,33.18
2019-02-15T08:29:06.371Z,34.05
2019-02-15T08:34:11.672Z,34.88
2019-02-15T08:39:16.975Z,37.05
2019-02-15T08:44:22.586Z,32.17
2019-02-15T08:49:27.967Z,28.90
2019-02-15T08:54:33.251Z,27.77
2019-02-15T08:59:38.613Z,31.70
2019-02-15T09:04:43.921Z,25.60
2019-02-15T09:09:49.232Z,26.20
2019-02-15T09:14:54.786Z,26.05
2019-02-15T09:20:00.272Z,29.35
2019-02-15T09:25:07.908Z,28.25
2019-02-15T09:30:14.573Z,30.97
2019-02-15T09:35:19.900Z,30.20
2019-02-15T09:40:25.417Z,28.05
2019-02-15T09:45:30.710Z,33.02
2019-02-15T09:50:36.012Z,25.40
2019-02-15T09:55:41.329Z,28.15
2019-02-15T10:00:47.137Z,27.77
2019-02-15T10:05:52.657Z,30.35
2019-02-15T10:10:58.081Z,30.45
2019-02-15T10:16:04.653Z,32.45
2019-02-15T10:21:09.961Z,30.52
2019-02-15T10:26:15.265Z,32.93
2019-02-15T10:31:20.565Z,38.33
2019-02-15T10:36:26.082Z,32.40
2019-02-15T10:41:31.378Z,35.08
2019-02-15T10:46:38.064Z,33.13
2019-02-15T10:51:43.587Z,32.95
2019-02-15T10:56:48.893Z,34.65
2019-02-15T11:01:54.197Z,38.35
2019-02-15T11:06:59.537Z,35.23
2019-02-15T11:12:04.929Z,37.53
2019-02-15T11:17:10.365Z,31.95
2019-02-15T11:22:15.657Z,32.33
2019-02-15T11:27:21.031Z,37.23
2019-02-15T11:32:26.325Z,37.78
2019-02-15T11:37:31.635Z,39.20
2019-02-15T11:42:36.956Z,34.05
2019-02-15T11:47:42.693Z,37.63
2019-02-15T11:52:48.009Z,46.18
2019-02-15T11:57:53.299Z,41.28
2019-02-15T12:02:58.607Z,39.60
2019-02-15T12:08:03.922Z,30.48
2019-02-15T12:13:09.210Z,26.93
2019-02-15T12:18:14.514Z,27.95
2019-02-15T12:23:19.807Z,33.53
2019-02-15T12:28:25.256Z,34.92
2019-02-15T12:33:30.556Z,28.67
2019-02-15T12:38:35.920Z,37.70
2019-02-15T12:43:41.229Z,35.40
2019-02-15T12:48:47.526Z,34.38
2019-02-15T12:53:52.834Z,34.88
2019-02-15T12:58:58.198Z,29.65
2019-02-15T13:04:03.713Z,29.00
2019-02-15T13:09:09.178Z,30.82
2019-02-15T13:14:14.554Z,29.65
2019-02-15T13:19:19.853Z,28.20
2019-02-15T13:24:25.167Z,27.55
2019-02-15T13:29:30.454Z,30.37
2019-02-15T13:34:35.743Z,27.95
2019-02-15T13:39:41.126Z,27.90
2019-02-15T13:44:46.514Z,27.77
2019-02-15T13:49:51.798Z,37.08
2019-02-15T13:55:00.378Z,32.28
2019-02-15T14:00:10.299Z,29.82
2019-02-15T14:05:15.792Z,27.25
2019-02-15T14:10:21.887Z,33.67
2019-02-15T14:15:27.283Z,29.42
2019-02-15T14:20:32.582Z,26.77
2019-02-15T14:25:37.953Z,36.28
2019-02-15T14:30:43.264Z,35.05
2019-02-15T14:35:48.563Z,40.98
2019-02-15T14:40:53.865Z,39.42
2019-02-15T14:45:59.233Z,41.85
2019-02-15T14:51:04.561Z,39.83
2019-02-15T14:56:09.862Z,41.10
2019-02-15T15:01:15.177Z,44.88
2019-02-15T15:06:20.558Z,43.70
2019-02-15T15:11:26.996Z,38.48
2019-02-15T15:16:32.289Z,32.83
2019-02-15T15:21:37.615Z,37.65
2019-02-15T15:26:42.974Z,35.10
2019-02-15T15:31:48.230Z,39.95
2019-02-15T15:36:54.428Z,40.15
2019-02-15T15:41:59.757Z,46.68
2019-02-15T15:47:05.929Z,35.43
2019-02-15T15:52:11.308Z,43.63
2019-02-15T15:57:16.650Z,59.15
2019-02-15T16:02:22.015Z,61.18
2019-02-15T16:07:27.323Z,59.20
2019-02-15T16:12:32.832Z,60.65
2019-02-15T16:17:38.154Z,65.22
2019-02-15T16:22:43.536Z,52.03
2019-02-15T16:27:48.864Z,41.23
2019-02-15T16:32:57.117Z,48.48
2019-02-15T16:38:02.423Z,47.10
2019-02-15T16:43:08.642Z,64.72
2019-02-15T16:48:14.018Z,154.15
2019-02-15T16:53:19.322Z,80.57
2019-02-15T16:58:24.641Z,110.48
2019-02-15T17:03:30.169Z,58.73
2019-02-15T17:08:35.540Z,54.53
2019-02-15T17:13:40.829Z,79.60
2019-02-15T17:18:51.739Z,133.95
2019-02-15T17:23:53.210Z,74.67
2019-02-15T17:28:58.521Z,78.62
2019-02-15T17:34:03.833Z,87.78
2019-02-15T17:39:09.138Z,67.37
2019-02-15T17:44:14.445Z,90.87
2019-02-15T17:49:19.764Z,82.78
2019-02-15T17:54:25.071Z,70.20
2019-02-15T17:59:30.381Z,60.20
2019-02-15T18:04:35.690Z,68.67
2019-02-15T18:09:41.191Z,59.23
2019-02-15T18:14:47.607Z,63.15
2019-02-15T18:19:52.987Z,55.75
2019-02-15T18:24:58.337Z,65.22
2019-02-15T18:30:04.576Z,53.87
2019-02-15T18:35:09.953Z,58.45
2019-02-15T18:40:16.409Z,68.62
2019-02-15T18:45:22.782Z,86.82
2019-02-15T18:50:28.089Z,77.17
2019-02-15T18:55:33.397Z,69.60
2019-02-15T19:00:38.709Z,75.30
2019-02-15T19:05:44.102Z,77.32
2019-02-15T19:10:49.385Z,84.30
2019-02-15T19:15:54.679Z,76.85
2019-02-15T19:20:59.993Z,79.10
2019-02-15T19:26:05.299Z,72.85
2019-02-15T19:31:10.951Z,76.62
2019-02-15T19:36:16.250Z,60.55
2019-02-15T19:41:21.559Z,53.83
2019-02-15T19:46:26.855Z,62.15
2019-02-15T19:51:32.286Z,57.43
2019-02-15T19:56:37.652Z,64.47
2019-02-15T20:01:44.006Z,59.03
2019-02-15T20:06:49.322Z,62.65
2019-02-15T20:11:54.701Z,74.22
2019-02-15T20:17:00.035Z,69.22
2019-02-15T20:22:05.334Z,62.08
2019-02-15T20:27:10.978Z,119.33
2019-02-15T20:32:16.520Z,84.00
2019-02-15T20:37:21.997Z,84.58
2019-02-15T20:42:27.901Z,88.15
2019-02-15T20:47:33.273Z,75.50
2019-02-15T20:52:38.577Z,83.07
2019-02-15T20:57:43.867Z,82.00
2019-02-15T21:02:49.166Z,89.35
2019-02-15T21:07:54.468Z,113.17
2019-02-15T21:12:59.785Z,121.40
2019-02-15T21:18:05.099Z,130.90
2019-02-15T21:23:10.397Z,105.20
2019-02-15T21:28:15.712Z,77.17
2019-02-15T21:33:21.001Z,84.60
2019-02-15T21:38:26.461Z,82.65
2019-02-15T21:43:31.841Z,79.90
2019-02-15T21:48:37.146Z,98.07
2019-02-15T21:53:42.463Z,112.40
2019-02-15T21:58:47.759Z,119.05
2019-02-15T22:03:53.074Z,122.22
2019-02-15T22:08:58.363Z,116.53
2019-02-15T22:14:05.274Z,112.95
2019-02-15T22:19:10.842Z,114.42
2019-02-15T22:24:16.261Z,92.67
2019-02-15T22:29:21.627Z,86.42
2019-02-15T22:34:28.474Z,92.90
2019-02-15T22:39:35.646Z,89.03
2019-02-15T22:44:40.953Z,80.67
2019-02-15T22:49:46.256Z,74.20
2019-02-15T22:54:51.553Z,71.07
2019-02-15T23:00:00.973Z,71.40
2019-02-15T23:05:04.983Z,74.70
2019-02-15T23:10:12.035Z,72.17
2019-02-15T23:15:17.884Z,80.90
2019-02-15T23:20:23.429Z,85.47
2019-02-15T23:25:28.721Z,82.57
2019-02-15T23:30:34.320Z,79.32
2019-02-15T23:35:39.762Z,80.22
2019-02-15T23:40:46.139Z,85.57
2019-02-15T23:45:51.510Z,84.77
2019-02-15T23:50:57.891Z,91.75
2019-02-15T23:56:03.192Z,93.72
